sensor_id;sensor_type;location;lat;lon;timestamp;P1;durP1;ratioP1;P2;durP2;ratioP2
33836;SDS011;20140;49.356;8.812;2023-04-25T00:02:03;6.70;;;6.00;;
33836;SDS011;20140;49.356;8.812;2023-04-25T00:04:30;7.80;;;6.10;;
33836;SDS011;20140;49.356;8.812;2023-04-25T00:06:57;9.05;;;5.95;;
33836;SDS011;20140;49.356;8.812;2023-04-25T00:09:26;8.25;;;6.53;;
33836;SDS011;20140;49.356;8.812;2023-04-25T00:11:52;8.55;;;6.43;;
33836;SDS011;20140;49.356;8.812;2023-04-25T00:14:17;6.90;;;6.05;;
33836;SDS011;20140;49.356;8.812;2023-04-25T00:16:43;9.07;;;6.65;;
33836;SDS011;20140;49.356;8.812;2023-04-25T00:19:09;8.55;;;6.63;;
33836;SDS011;20140;49.356;8.812;2023-04-25T00:21:34;7.15;;;6.45;;
33836;SDS011;20140;49.356;8.812;2023-04-25T00:24:00;9.45;;;6.75;;
33836;SDS011;20140;49.356;8.812;2023-04-25T00:26:26;8.77;;;7.28;;
33836;SDS011;20140;49.356;8.812;2023-04-25T00:28:52;10.30;;;7.72;;
33836;SDS011;20140;49.356;8.812;2023-04-25T00:31:17;8.05;;;6.90;;
33836;SDS011;20140;49.356;8.812;2023-04-25T00:33:43;10.27;;;8.05;;
33836;SDS011;20140;49.356;8.812;2023-04-25T00:36:08;9.77;;;7.47;;
33836;SDS011;20140;49.356;8.812;2023-04-25T00:38:34;8.90;;;7.85;;
33836;SDS011;20140;49.356;8.812;2023-04-25T00:41:00;7.88;;;6.93;;
33836;SDS011;20140;49.356;8.812;2023-04-25T00:43:26;8.77;;;7.88;;
33836;SDS011;20140;49.356;8.812;2023-04-25T00:45:55;11.13;;;7.63;;
33836;SDS011;20140;49.356;8.812;2023-04-25T00:48:22;9.57;;;7.90;;
33836;SDS011;20140;49.356;8.812;2023-04-25T00:50:51;11.38;;;8.63;;
33836;SDS011;20140;49.356;8.812;2023-04-25T00:53:18;10.70;;;7.47;;
33836;SDS011;20140;49.356;8.812;2023-04-25T00:55:45;12.03;;;9.37;;
33836;SDS011;20140;49.356;8.812;2023-04-25T00:58:11;9.68;;;8.10;;
33836;SDS011;20140;49.356;8.812;2023-04-25T01:00:36;9.30;;;7.85;;
33836;SDS011;20140;49.356;8.812;2023-04-25T01:03:02;10.87;;;7.43;;
33836;SDS011;20140;49.356;8.812;2023-04-25T01:05:28;9.27;;;8.18;;
33836;SDS011;20140;49.356;8.812;2023-04-25T01:07:54;11.63;;;8.95;;
33836;SDS011;20140;49.356;8.812;2023-04-25T01:10:20;10.77;;;7.83;;
33836;SDS011;20140;49.356;8.812;2023-04-25T01:12:46;9.53;;;7.47;;
33836;SDS011;20140;49.356;8.812;2023-04-25T01:15:12;10.25;;;8.15;;
33836;SDS011;20140;49.356;8.812;2023-04-25T01:17:37;9.17;;;7.70;;
33836;SDS011;20140;49.356;8.812;2023-04-25T01:20:04;9.93;;;8.40;;
33836;SDS011;20140;49.356;8.812;2023-04-25T01:22:32;10.82;;;8.10;;
33836;SDS011;20140;49.356;8.812;2023-04-25T01:24:58;9.40;;;8.18;;
33836;SDS011;20140;49.356;8.812;2023-04-25T01:27:25;10.60;;;8.07;;
33836;SDS011;20140;49.356;8.812;2023-04-25T01:29:50;10.33;;;8.40;;
33836;SDS011;20140;49.356;8.812;2023-04-25T01:32:16;9.38;;;7.78;;
33836;SDS011;20140;49.356;8.812;2023-04-25T01:34:43;8.80;;;7.50;;
33836;SDS011;20140;49.356;8.812;2023-04-25T01:37:08;10.25;;;8.38;;
33836;SDS011;20140;49.356;8.812;2023-04-25T01:39:34;8.23;;;7.32;;
33836;SDS011;20140;49.356;8.812;2023-04-25T01:42:00;7.28;;;6.55;;
33836;SDS011;20140;49.356;8.812;2023-04-25T01:44:26;8.52;;;7.57;;
33836;SDS011;20140;49.356;8.812;2023-04-25T01:46:52;8.70;;;7.40;;
33836;SDS011;20140;49.356;8.812;2023-04-25T01:49:17;10.55;;;7.32;;
33836;SDS011;20140;49.356;8.812;2023-04-25T01:51:43;8.73;;;7.80;;
33836;SDS011;20140;49.356;8.812;2023-04-25T01:54:09;9.15;;;7.35;;
33836;SDS011;20140;49.356;8.812;2023-04-25T01:56:36;11.20;;;7.00;;
33836;SDS011;20140;49.356;8.812;2023-04-25T01:59:03;9.02;;;7.68;;
33836;SDS011;20140;49.356;8.812;2023-04-25T02:01:29;8.90;;;7.95;;
33836;SDS011;20140;49.356;8.812;2023-04-25T02:03:55;8.98;;;8.07;;
33836;SDS011;20140;49.356;8.812;2023-04-25T02:06:20;11.07;;;7.30;;
33836;SDS011;20140;49.356;8.812;2023-04-25T02:08:46;9.57;;;8.17;;
33836;SDS011;20140;49.356;8.812;2023-04-25T02:11:11;10.47;;;7.93;;
33836;SDS011;20140;49.356;8.812;2023-04-25T02:13:37;11.20;;;8.83;;
33836;SDS011;20140;49.356;8.812;2023-04-25T02:16:02;10.05;;;8.43;;
33836;SDS011;20140;49.356;8.812;2023-04-25T02:18:28;11.25;;;9.43;;
33836;SDS011;20140;49.356;8.812;2023-04-25T02:20:53;9.43;;;8.38;;
33836;SDS011;20140;49.356;8.812;2023-04-25T02:23:19;9.60;;;8.18;;
33836;SDS011;20140;49.356;8.812;2023-04-25T02:25:45;11.05;;;8.55;;
33836;SDS011;20140;49.356;8.812;2023-04-25T02:28:10;10.05;;;8.13;;
33836;SDS011;20140;49.356;8.812;2023-04-25T02:30:36;9.70;;;8.13;;
33836;SDS011;20140;49.356;8.812;2023-04-25T02:33:01;10.33;;;7.73;;
33836;SDS011;20140;49.356;8.812;2023-04-25T02:35:27;9.27;;;7.73;;
33836;SDS011;20140;49.356;8.812;2023-04-25T02:37:53;10.23;;;8.63;;
33836;SDS011;20140;49.356;8.812;2023-04-25T02:40:18;8.00;;;7.20;;
33836;SDS011;20140;49.356;8.812;2023-04-25T02:42:43;13.30;;;8.23;;
33836;SDS011;20140;49.356;8.812;2023-04-25T02:45:10;10.32;;;8.15;;
33836;SDS011;20140;49.356;8.812;2023-04-25T02:47:36;9.52;;;7.38;;
33836;SDS011;20140;49.356;8.812;2023-04-25T02:50:02;9.77;;;8.23;;
33836;SDS011;20140;49.356;8.812;2023-04-25T02:52:28;11.45;;;8.15;;
33836;SDS011;20140;49.356;8.812;2023-04-25T02:54:53;9.57;;;7.53;;
33836;SDS011;20140;49.356;8.812;2023-04-25T02:57:19;8.70;;;7.47;;
33836;SDS011;20140;49.356;8.812;2023-04-25T02:59:44;10.13;;;6.97;;
33836;SDS011;20140;49.356;8.812;2023-04-25T03:02:10;8.07;;;7.00;;
33836;SDS011;20140;49.356;8.812;2023-04-25T03:04:35;10.43;;;7.70;;
33836;SDS011;20140;49.356;8.812;2023-04-25T03:07:01;11.60;;;8.40;;
33836;SDS011;20140;49.356;8.812;2023-04-25T03:09:26;10.90;;;9.07;;
33836;SDS011;20140;49.356;8.812;2023-04-25T03:11:52;11.33;;;9.07;;
33836;SDS011;20140;49.356;8.812;2023-04-25T03:14:17;9.77;;;8.40;;
33836;SDS011;20140;49.356;8.812;2023-04-25T03:16:43;10.83;;;8.73;;
33836;SDS011;20140;49.356;8.812;2023-04-25T03:19:08;10.47;;;9.37;;
33836;SDS011;20140;49.356;8.812;2023-04-25T03:21:34;11.25;;;9.02;;
33836;SDS011;20140;49.356;8.812;2023-04-25T03:24:01;12.13;;;9.70;;
33836;SDS011;20140;49.356;8.812;2023-04-25T03:26:28;9.67;;;8.43;;
33836;SDS011;20140;49.356;8.812;2023-04-25T03:28:54;12.80;;;9.68;;
33836;SDS011;20140;49.356;8.812;2023-04-25T03:31:19;10.40;;;9.37;;
33836;SDS011;20140;49.356;8.812;2023-04-25T03:33:45;11.50;;;9.30;;
33836;SDS011;20140;49.356;8.812;2023-04-25T03:36:10;10.70;;;9.60;;
33836;SDS011;20140;49.356;8.812;2023-04-25T03:38:36;12.03;;;9.70;;
33836;SDS011;20140;49.356;8.812;2023-04-25T03:41:02;11.52;;;9.55;;
33836;SDS011;20140;49.356;8.812;2023-04-25T03:43:27;12.65;;;11.13;;
33836;SDS011;20140;49.356;8.812;2023-04-25T03:45:53;11.75;;;9.98;;
33836;SDS011;20140;49.356;8.812;2023-04-25T03:48:19;14.40;;;10.18;;
33836;SDS011;20140;49.356;8.812;2023-04-25T03:50:46;13.07;;;10.83;;
33836;SDS011;20140;49.356;8.812;2023-04-25T03:53:12;14.40;;;11.82;;
33836;SDS011;20140;49.356;8.812;2023-04-25T03:55:37;13.03;;;11.13;;
33836;SDS011;20140;49.356;8.812;2023-04-25T03:58:03;14.20;;;10.27;;
33836;SDS011;20140;49.356;8.812;2023-04-25T04:00:28;11.77;;;9.93;;
33836;SDS011;20140;49.356;8.812;2023-04-25T04:02:54;11.65;;;9.90;;
33836;SDS011;20140;49.356;8.812;2023-04-25T04:05:20;13.57;;;10.73;;
33836;SDS011;20140;49.356;8.812;2023-04-25T04:07:46;12.77;;;10.50;;
33836;SDS011;20140;49.356;8.812;2023-04-25T04:10:11;11.20;;;10.03;;
33836;SDS011;20140;49.356;8.812;2023-04-25T04:12:37;12.68;;;9.70;;
33836;SDS011;20140;49.356;8.812;2023-04-25T04:15:04;13.02;;;10.05;;
33836;SDS011;20140;49.356;8.812;2023-04-25T04:17:30;12.02;;;9.75;;
33836;SDS011;20140;49.356;8.812;2023-04-25T04:19:56;11.27;;;9.50;;
33836;SDS011;20140;49.356;8.812;2023-04-25T04:22:22;12.30;;;10.00;;
33836;SDS011;20140;49.356;8.812;2023-04-25T04:24:48;12.95;;;10.30;;
33836;SDS011;20140;49.356;8.812;2023-04-25T04:27:15;9.30;;;8.32;;
33836;SDS011;20140;49.356;8.812;2023-04-25T04:29:46;9.80;;;8.57;;
33836;SDS011;20140;49.356;8.812;2023-04-25T04:32:12;13.37;;;8.80;;
33836;SDS011;20140;49.356;8.812;2023-04-25T04:34:38;11.32;;;9.52;;
33836;SDS011;20140;49.356;8.812;2023-04-25T04:37:04;13.18;;;10.40;;
33836;SDS011;20140;49.356;8.812;2023-04-25T04:39:31;12.05;;;9.95;;
33836;SDS011;20140;49.356;8.812;2023-04-25T04:42:00;12.93;;;9.68;;
33836;SDS011;20140;49.356;8.812;2023-04-25T04:44:29;11.05;;;9.07;;
33836;SDS011;20140;49.356;8.812;2023-04-25T04:46:57;12.32;;;9.38;;
33836;SDS011;20140;49.356;8.812;2023-04-25T04:49:23;9.60;;;8.43;;
33836;SDS011;20140;49.356;8.812;2023-04-25T04:51:48;10.93;;;9.63;;
33836;SDS011;20140;49.356;8.812;2023-04-25T04:54:14;10.87;;;9.00;;
33836;SDS011;20140;49.356;8.812;2023-04-25T04:56:40;12.67;;;9.53;;
33836;SDS011;20140;49.356;8.812;2023-04-25T04:59:06;11.85;;;9.48;;
33836;SDS011;20140;49.356;8.812;2023-04-25T05:01:32;11.68;;;10.48;;
33836;SDS011;20140;49.356;8.812;2023-04-25T05:04:00;14.90;;;11.20;;
33836;SDS011;20140;49.356;8.812;2023-04-25T05:06:26;12.57;;;10.60;;
33836;SDS011;20140;49.356;8.812;2023-04-25T05:08:52;11.95;;;9.18;;
33836;SDS011;20140;49.356;8.812;2023-04-25T05:11:18;11.18;;;8.95;;
33836;SDS011;20140;49.356;8.812;2023-04-25T05:13:44;9.63;;;8.43;;
33836;SDS011;20140;49.356;8.812;2023-04-25T05:16:10;10.23;;;8.63;;
33836;SDS011;20140;49.356;8.812;2023-04-25T05:18:36;11.23;;;9.23;;
33836;SDS011;20140;49.356;8.812;2023-04-25T05:21:02;16.10;;;9.83;;
33836;SDS011;20140;49.356;8.812;2023-04-25T05:23:28;11.83;;;9.73;;
33836;SDS011;20140;49.356;8.812;2023-04-25T05:25:55;12.48;;;10.10;;
33836;SDS011;20140;49.356;8.812;2023-04-25T05:28:20;13.85;;;10.65;;
33836;SDS011;20140;49.356;8.812;2023-04-25T05:30:46;13.50;;;11.27;;
33836;SDS011;20140;49.356;8.812;2023-04-25T05:33:11;14.30;;;11.47;;
33836;SDS011;20140;49.356;8.812;2023-04-25T05:35:37;16.80;;;11.50;;
33836;SDS011;20140;49.356;8.812;2023-04-25T05:38:02;15.70;;;11.37;;
33836;SDS011;20140;49.356;8.812;2023-04-25T05:40:28;17.50;;;12.60;;
33836;SDS011;20140;49.356;8.812;2023-04-25T05:42:53;14.77;;;11.68;;
33836;SDS011;20140;49.356;8.812;2023-04-25T05:45:19;14.07;;;10.80;;
33836;SDS011;20140;49.356;8.812;2023-04-25T05:47:44;17.10;;;11.87;;
33836;SDS011;20140;49.356;8.812;2023-04-25T05:50:10;14.77;;;11.27;;
33836;SDS011;20140;49.356;8.812;2023-04-25T05:52:35;14.00;;;10.68;;
33836;SDS011;20140;49.356;8.812;2023-04-25T05:55:01;12.47;;;10.10;;
33836;SDS011;20140;49.356;8.812;2023-04-25T05:57:27;14.00;;;10.53;;
33836;SDS011;20140;49.356;8.812;2023-04-25T05:59:53;12.73;;;9.95;;
33836;SDS011;20140;49.356;8.812;2023-04-25T06:02:19;13.55;;;10.98;;
33836;SDS011;20140;49.356;8.812;2023-04-25T06:04:51;13.57;;;10.73;;
33836;SDS011;20140;49.356;8.812;2023-04-25T06:07:17;13.95;;;10.90;;
33836;SDS011;20140;49.356;8.812;2023-04-25T06:09:46;13.73;;;9.70;;
33836;SDS011;20140;49.356;8.812;2023-04-25T06:12:11;12.52;;;10.40;;
33836;SDS011;20140;49.356;8.812;2023-04-25T06:14:37;10.60;;;9.00;;
33836;SDS011;20140;49.356;8.812;2023-04-25T06:17:03;12.80;;;9.98;;
33836;SDS011;20140;49.356;8.812;2023-04-25T06:19:33;11.95;;;10.68;;
33836;SDS011;20140;49.356;8.812;2023-04-25T06:21:59;14.00;;;10.88;;
33836;SDS011;20140;49.356;8.812;2023-04-25T06:24:25;15.65;;;13.05;;
33836;SDS011;20140;49.356;8.812;2023-04-25T06:26:50;16.15;;;12.23;;
33836;SDS011;20140;49.356;8.812;2023-04-25T06:29:16;13.17;;;10.70;;
33836;SDS011;20140;49.356;8.812;2023-04-25T06:31:41;14.23;;;11.53;;
33836;SDS011;20140;49.356;8.812;2023-04-25T06:34:07;13.07;;;10.87;;
33836;SDS011;20140;49.356;8.812;2023-04-25T06:36:32;14.38;;;11.73;;
33836;SDS011;20140;49.356;8.812;2023-04-25T06:38:58;15.32;;;12.25;;
33836;SDS011;20140;49.356;8.812;2023-04-25T06:41:24;14.07;;;11.23;;
33836;SDS011;20140;49.356;8.812;2023-04-25T06:43:50;13.18;;;11.13;;
33836;SDS011;20140;49.356;8.812;2023-04-25T06:46:15;12.75;;;10.65;;
33836;SDS011;20140;49.356;8.812;2023-04-25T06:48:41;14.55;;;9.75;;
33836;SDS011;20140;49.356;8.812;2023-04-25T06:51:06;13.70;;;10.50;;
33836;SDS011;20140;49.356;8.812;2023-04-25T06:53:32;15.27;;;11.00;;
33836;SDS011;20140;49.356;8.812;2023-04-25T06:55:57;11.30;;;9.80;;
33836;SDS011;20140;49.356;8.812;2023-04-25T06:58:23;13.00;;;11.02;;
33836;SDS011;20140;49.356;8.812;2023-04-25T07:00:48;12.25;;;10.00;;
33836;SDS011;20140;49.356;8.812;2023-04-25T07:03:14;10.97;;;9.77;;
33836;SDS011;20140;49.356;8.812;2023-04-25T07:05:39;10.30;;;9.20;;
33836;SDS011;20140;49.356;8.812;2023-04-25T07:08:05;10.87;;;9.67;;
33836;SDS011;20140;49.356;8.812;2023-04-25T07:10:31;12.17;;;10.17;;
33836;SDS011;20140;49.356;8.812;2023-04-25T07:12:56;12.10;;;10.13;;
33836;SDS011;20140;49.356;8.812;2023-04-25T07:15:21;12.20;;;9.90;;
33836;SDS011;20140;49.356;8.812;2023-04-25T07:17:47;14.90;;;11.07;;
33836;SDS011;20140;49.356;8.812;2023-04-25T07:20:12;11.67;;;10.10;;
33836;SDS011;20140;49.356;8.812;2023-04-25T07:22:38;11.73;;;9.85;;
33836;SDS011;20140;49.356;8.812;2023-04-25T07:25:04;13.57;;;11.05;;
33836;SDS011;20140;49.356;8.812;2023-04-25T07:27:30;13.00;;;9.93;;
33836;SDS011;20140;49.356;8.812;2023-04-25T07:29:56;11.40;;;10.20;;
33836;SDS011;20140;49.356;8.812;2023-04-25T07:32:22;13.48;;;10.60;;
33836;SDS011;20140;49.356;8.812;2023-04-25T07:34:47;12.90;;;10.40;;
33836;SDS011;20140;49.356;8.812;2023-04-25T07:37:13;10.75;;;9.40;;
33836;SDS011;20140;49.356;8.812;2023-04-25T07:39:39;13.48;;;10.43;;
33836;SDS011;20140;49.356;8.812;2023-04-25T07:42:05;12.38;;;9.82;;
33836;SDS011;20140;49.356;8.812;2023-04-25T07:44:32;11.48;;;8.93;;
33836;SDS011;20140;49.356;8.812;2023-04-25T07:47:03;14.90;;;11.23;;
33836;SDS011;20140;49.356;8.812;2023-04-25T07:49:32;12.38;;;11.10;;
33836;SDS011;20140;49.356;8.812;2023-04-25T07:52:02;11.82;;;10.63;;
33836;SDS011;20140;49.356;8.812;2023-04-25T07:54:29;13.27;;;10.10;;
33836;SDS011;20140;49.356;8.812;2023-04-25T07:56:55;11.67;;;9.63;;
33836;SDS011;20140;49.356;8.812;2023-04-25T07:59:21;13.20;;;9.00;;
33836;SDS011;20140;49.356;8.812;2023-04-25T08:01:46;13.10;;;9.82;;
33836;SDS011;20140;49.356;8.812;2023-04-25T08:04:12;11.18;;;9.90;;
33836;SDS011;20140;49.356;8.812;2023-04-25T08:06:37;12.57;;;9.63;;
33836;SDS011;20140;49.356;8.812;2023-04-25T08:09:03;11.63;;;9.27;;
33836;SDS011;20140;49.356;8.812;2023-04-25T08:11:29;11.87;;;8.57;;
33836;SDS011;20140;49.356;8.812;2023-04-25T08:13:54;12.47;;;9.23;;
33836;SDS011;20140;49.356;8.812;2023-04-25T08:16:20;11.07;;;8.77;;
33836;SDS011;20140;49.356;8.812;2023-04-25T08:18:45;13.80;;;9.70;;
33836;SDS011;20140;49.356;8.812;2023-04-25T08:21:11;9.17;;;7.67;;
33836;SDS011;20140;49.356;8.812;2023-04-25T08:23:37;12.35;;;8.07;;
33836;SDS011;20140;49.356;8.812;2023-04-25T08:26:03;10.35;;;8.55;;
33836;SDS011;20140;49.356;8.812;2023-04-25T08:28:30;10.30;;;8.63;;
33836;SDS011;20140;49.356;8.812;2023-04-25T08:30:56;12.27;;;8.85;;
33836;SDS011;20140;49.356;8.812;2023-04-25T08:33:21;10.60;;;9.18;;
33836;SDS011;20140;49.356;8.812;2023-04-25T08:35:47;11.20;;;8.43;;
33836;SDS011;20140;49.356;8.812;2023-04-25T08:38:13;9.48;;;7.55;;
33836;SDS011;20140;49.356;8.812;2023-04-25T08:40:38;10.30;;;7.03;;
33836;SDS011;20140;49.356;8.812;2023-04-25T08:43:05;8.68;;;6.13;;
33836;SDS011;20140;49.356;8.812;2023-04-25T08:45:36;9.73;;;6.00;;
33836;SDS011;20140;49.356;8.812;2023-04-25T08:48:05;10.45;;;5.95;;
33836;SDS011;20140;49.356;8.812;2023-04-25T08:50:35;8.27;;;5.75;;
33836;SDS011;20140;49.356;8.812;2023-04-25T08:53:04;8.20;;;5.82;;
33836;SDS011;20140;49.356;8.812;2023-04-25T08:55:33;8.43;;;5.13;;
33836;SDS011;20140;49.356;8.812;2023-04-25T08:57:59;6.72;;;4.45;;
33836;SDS011;20140;49.356;8.812;2023-04-25T09:00:25;8.60;;;5.15;;
33836;SDS011;20140;49.356;8.812;2023-04-25T09:02:51;6.90;;;4.45;;
33836;SDS011;20140;49.356;8.812;2023-04-25T09:05:18;6.38;;;4.18;;
33836;SDS011;20140;49.356;8.812;2023-04-25T09:07:44;6.50;;;3.80;;
33836;SDS011;20140;49.356;8.812;2023-04-25T09:10:09;5.57;;;4.57;;
33836;SDS011;20140;49.356;8.812;2023-04-25T09:12:35;6.68;;;4.10;;
33836;SDS011;20140;49.356;8.812;2023-04-25T09:15:06;7.53;;;3.85;;
33836;SDS011;20140;49.356;8.812;2023-04-25T09:17:33;6.57;;;4.40;;
33836;SDS011;20140;49.356;8.812;2023-04-25T09:20:05;7.82;;;3.95;;
33836;SDS011;20140;49.356;8.812;2023-04-25T09:22:33;5.53;;;3.63;;
33836;SDS011;20140;49.356;8.812;2023-04-25T09:25:01;7.85;;;3.75;;
33836;SDS011;20140;49.356;8.812;2023-04-25T09:27:40;10.35;;;5.25;;
33836;SDS011;20140;49.356;8.812;2023-04-25T09:30:28;7.80;;;4.27;;
33836;SDS011;20140;49.356;8.812;2023-04-25T09:33:05;5.28;;;4.32;;
33836;SDS011;20140;49.356;8.812;2023-04-25T09:35:38;9.57;;;4.00;;
33836;SDS011;20140;49.356;8.812;2023-04-25T09:38:12;4.90;;;3.78;;
33836;SDS011;20140;49.356;8.812;2023-04-25T09:40:44;7.95;;;3.35;;
33836;SDS011;20140;49.356;8.812;2023-04-25T09:43:23;5.30;;;3.50;;
33836;SDS011;20140;49.356;8.812;2023-04-25T09:45:50;4.93;;;3.63;;
33836;SDS011;20140;49.356;8.812;2023-04-25T09:48:18;7.25;;;4.07;;
33836;SDS011;20140;49.356;8.812;2023-04-25T09:53:29;7.65;;;4.10;;
33836;SDS011;20140;49.356;8.812;2023-04-25T09:55:56;5.68;;;4.15;;
33836;SDS011;20140;49.356;8.812;2023-04-25T09:58:23;7.57;;;3.83;;
33836;SDS011;20140;49.356;8.812;2023-04-25T10:00:49;6.63;;;3.45;;
33836;SDS011;20140;49.356;8.812;2023-04-25T10:03:17;7.00;;;4.05;;
33836;SDS011;20140;49.356;8.812;2023-04-25T10:05:45;7.60;;;3.83;;
33836;SDS011;20140;49.356;8.812;2023-04-25T10:08:14;9.95;;;3.83;;
33836;SDS011;20140;49.356;8.812;2023-04-25T10:10:41;7.75;;;3.55;;
33836;SDS011;20140;49.356;8.812;2023-04-25T10:13:07;4.95;;;3.40;;
33836;SDS011;20140;49.356;8.812;2023-04-25T10:15:34;5.35;;;3.20;;
33836;SDS011;20140;49.356;8.812;2023-04-25T10:18:01;6.75;;;3.35;;
33836;SDS011;20140;49.356;8.812;2023-04-25T10:20:27;5.72;;;4.13;;
33836;SDS011;20140;49.356;8.812;2023-04-25T10:22:54;8.55;;;4.70;;
33836;SDS011;20140;49.356;8.812;2023-04-25T10:25:23;7.82;;;4.28;;
33836;SDS011;20140;49.356;8.812;2023-04-25T10:27:52;7.13;;;4.43;;
33836;SDS011;20140;49.356;8.812;2023-04-25T10:30:18;5.73;;;4.27;;
33836;SDS011;20140;49.356;8.812;2023-04-25T10:32:44;5.70;;;4.00;;
33836;SDS011;20140;49.356;8.812;2023-04-25T10:35:14;4.82;;;3.60;;
33836;SDS011;20140;49.356;8.812;2023-04-25T10:40:29;7.75;;;3.70;;
33836;SDS011;20140;49.356;8.812;2023-04-25T10:42:55;5.70;;;3.23;;
33836;SDS011;20140;49.356;8.812;2023-04-25T10:45:51;7.13;;;3.13;;
33836;SDS011;20140;49.356;8.812;2023-04-25T10:48:26;6.40;;;3.58;;
33836;SDS011;20140;49.356;8.812;2023-04-25T10:51:10;5.93;;;4.00;;
33836;SDS011;20140;49.356;8.812;2023-04-25T10:53:40;5.60;;;3.50;;
33836;SDS011;20140;49.356;8.812;2023-04-25T10:56:09;7.73;;;4.37;;
33836;SDS011;20140;49.356;8.812;2023-04-25T10:58:45;7.07;;;3.75;;
33836;SDS011;20140;49.356;8.812;2023-04-25T11:01:15;9.95;;;5.05;;
33836;SDS011;20140;49.356;8.812;2023-04-25T11:03:45;5.68;;;3.88;;
33836;SDS011;20140;49.356;8.812;2023-04-25T11:06:15;5.68;;;3.67;;
33836;SDS011;20140;49.356;8.812;2023-04-25T11:08:48;7.28;;;3.97;;
33836;SDS011;20140;49.356;8.812;2023-04-25T11:11:16;9.27;;;5.20;;
33836;SDS011;20140;49.356;8.812;2023-04-25T11:13:43;10.50;;;5.68;;
33836;SDS011;20140;49.356;8.812;2023-04-25T11:16:09;9.00;;;3.83;;
33836;SDS011;20140;49.356;8.812;2023-04-25T11:18:35;8.02;;;3.75;;
33836;SDS011;20140;49.356;8.812;2023-04-25T11:21:02;6.38;;;3.58;;
33836;SDS011;20140;49.356;8.812;2023-04-25T11:23:28;7.80;;;4.20;;
33836;SDS011;20140;49.356;8.812;2023-04-25T11:25:55;8.60;;;4.40;;
33836;SDS011;20140;49.356;8.812;2023-04-25T11:28:21;8.43;;;5.00;;
33836;SDS011;20140;49.356;8.812;2023-04-25T11:30:48;5.75;;;3.45;;
33836;SDS011;20140;49.356;8.812;2023-04-25T11:33:17;6.17;;;3.73;;
33836;SDS011;20140;49.356;8.812;2023-04-25T11:35:47;8.02;;;5.18;;
33836;SDS011;20140;49.356;8.812;2023-04-25T11:38:13;8.53;;;4.43;;
33836;SDS011;20140;49.356;8.812;2023-04-25T11:40:38;8.97;;;5.20;;
33836;SDS011;20140;49.356;8.812;2023-04-25T11:43:04;6.47;;;4.03;;
33836;SDS011;20140;49.356;8.812;2023-04-25T11:45:29;7.37;;;4.83;;
33836;SDS011;20140;49.356;8.812;2023-04-25T11:47:58;9.60;;;4.75;;
33836;SDS011;20140;49.356;8.812;2023-04-25T11:50:23;8.63;;;4.63;;
33836;SDS011;20140;49.356;8.812;2023-04-25T11:52:49;10.17;;;4.53;;
33836;SDS011;20140;49.356;8.812;2023-04-25T11:55:16;7.27;;;4.33;;
33836;SDS011;20140;49.356;8.812;2023-04-25T11:57:43;7.65;;;4.40;;
33836;SDS011;20140;49.356;8.812;2023-04-25T12:00:13;5.43;;;3.45;;
33836;SDS011;20140;49.356;8.812;2023-04-25T12:02:51;7.72;;;3.38;;
33836;SDS011;20140;49.356;8.812;2023-04-25T12:05:18;6.80;;;4.38;;
33836;SDS011;20140;49.356;8.812;2023-04-25T12:07:45;7.47;;;3.45;;
33836;SDS011;20140;49.356;8.812;2023-04-25T12:10:12;5.40;;;3.80;;
33836;SDS011;20140;49.356;8.812;2023-04-25T12:12:42;7.28;;;4.90;;
33836;SDS011;20140;49.356;8.812;2023-04-25T12:15:09;5.68;;;3.08;;
33836;SDS011;20140;49.356;8.812;2023-04-25T12:17:49;6.70;;;4.22;;
33836;SDS011;20140;49.356;8.812;2023-04-25T12:20:16;6.67;;;4.00;;
33836;SDS011;20140;49.356;8.812;2023-04-25T12:22:49;6.63;;;3.90;;
33836;SDS011;20140;49.356;8.812;2023-04-25T12:28:20;7.43;;;2.90;;
33836;SDS011;20140;49.356;8.812;2023-04-25T12:30:55;3.35;;;3.00;;
33836;SDS011;20140;49.356;8.812;2023-04-25T12:33:22;5.32;;;2.78;;
33836;SDS011;20140;49.356;8.812;2023-04-25T12:35:49;6.65;;;3.72;;
33836;SDS011;20140;49.356;8.812;2023-04-25T12:38:27;3.27;;;2.50;;
33836;SDS011;20140;49.356;8.812;2023-04-25T12:40:57;6.00;;;3.20;;
33836;SDS011;20140;49.356;8.812;2023-04-25T12:43:23;5.03;;;2.78;;
33836;SDS011;20140;49.356;8.812;2023-04-25T12:45:49;4.10;;;2.67;;
33836;SDS011;20140;49.356;8.812;2023-04-25T12:48:16;2.83;;;2.33;;
33836;SDS011;20140;49.356;8.812;2023-04-25T12:50:41;4.03;;;2.50;;
33836;SDS011;20140;49.356;8.812;2023-04-25T12:53:07;5.70;;;2.53;;
33836;SDS011;20140;49.356;8.812;2023-04-25T12:55:33;7.93;;;3.27;;
33836;SDS011;20140;49.356;8.812;2023-04-25T12:57:58;4.43;;;3.10;;
33836;SDS011;20140;49.356;8.812;2023-04-25T13:00:24;6.07;;;3.07;;
33836;SDS011;20140;49.356;8.812;2023-04-25T13:02:49;6.82;;;3.42;;
33836;SDS011;20140;49.356;8.812;2023-04-25T13:05:15;6.75;;;4.10;;
33836;SDS011;20140;49.356;8.812;2023-04-25T13:07:40;5.80;;;2.77;;
33836;SDS011;20140;49.356;8.812;2023-04-25T13:10:06;4.07;;;3.07;;
33836;SDS011;20140;49.356;8.812;2023-04-25T13:12:32;5.78;;;3.88;;
33836;SDS011;20140;49.356;8.812;2023-04-25T13:14:58;5.50;;;3.40;;
33836;SDS011;20140;49.356;8.812;2023-04-25T13:17:23;8.10;;;4.40;;
33836;SDS011;20140;49.356;8.812;2023-04-25T13:19:49;4.80;;;2.97;;
33836;SDS011;20140;49.356;8.812;2023-04-25T13:22:14;6.60;;;3.33;;
33836;SDS011;20140;49.356;8.812;2023-04-25T13:24:41;8.40;;;3.47;;
33836;SDS011;20140;49.356;8.812;2023-04-25T13:27:07;5.05;;;2.65;;
33836;SDS011;20140;49.356;8.812;2023-04-25T13:29:33;4.00;;;3.08;;
33836;SDS011;20140;49.356;8.812;2023-04-25T13:32:00;5.30;;;3.20;;
33836;SDS011;20140;49.356;8.812;2023-04-25T13:34:26;5.28;;;3.72;;
33836;SDS011;20140;49.356;8.812;2023-04-25T13:36:53;6.47;;;4.68;;
33836;SDS011;20140;49.356;8.812;2023-04-25T13:39:18;8.85;;;4.30;;
33836;SDS011;20140;49.356;8.812;2023-04-25T13:41:44;4.43;;;3.57;;
33836;SDS011;20140;49.356;8.812;2023-04-25T13:44:09;10.88;;;4.10;;
33836;SDS011;20140;49.356;8.812;2023-04-25T13:46:35;4.70;;;3.33;;
33836;SDS011;20140;49.356;8.812;2023-04-25T13:49:02;6.63;;;3.45;;
33836;SDS011;20140;49.356;8.812;2023-04-25T13:51:28;7.90;;;3.63;;
33836;SDS011;20140;49.356;8.812;2023-04-25T13:53:53;8.43;;;5.33;;
33836;SDS011;20140;49.356;8.812;2023-04-25T13:56:19;4.05;;;2.97;;
33836;SDS011;20140;49.356;8.812;2023-04-25T13:58:45;7.45;;;2.95;;
33836;SDS011;20140;49.356;8.812;2023-04-25T14:01:12;4.38;;;2.72;;
33836;SDS011;20140;49.356;8.812;2023-04-25T14:03:38;6.03;;;3.53;;
33836;SDS011;20140;49.356;8.812;2023-04-25T14:06:04;6.23;;;3.00;;
33836;SDS011;20140;49.356;8.812;2023-04-25T14:08:29;5.60;;;3.60;;
33836;SDS011;20140;49.356;8.812;2023-04-25T14:10:55;4.88;;;3.55;;
33836;SDS011;20140;49.356;8.812;2023-04-25T14:13:21;8.60;;;3.75;;
33836;SDS011;20140;49.356;8.812;2023-04-25T14:15:46;4.68;;;3.33;;
33836;SDS011;20140;49.356;8.812;2023-04-25T14:18:12;4.43;;;2.77;;
33836;SDS011;20140;49.356;8.812;2023-04-25T14:20:37;4.97;;;3.20;;
33836;SDS011;20140;49.356;8.812;2023-04-25T14:23:03;5.27;;;3.47;;
33836;SDS011;20140;49.356;8.812;2023-04-25T14:25:29;4.30;;;3.20;;
33836;SDS011;20140;49.356;8.812;2023-04-25T14:27:55;4.78;;;3.78;;
33836;SDS011;20140;49.356;8.812;2023-04-25T14:30:20;7.57;;;4.38;;
33836;SDS011;20140;49.356;8.812;2023-04-25T14:32:47;6.07;;;4.72;;
33836;SDS011;20140;49.356;8.812;2023-04-25T14:35:13;8.80;;;4.30;;
33836;SDS011;20140;49.356;8.812;2023-04-25T14:37:39;7.23;;;3.97;;
33836;SDS011;20140;49.356;8.812;2023-04-25T14:40:05;7.70;;;3.67;;
33836;SDS011;20140;49.356;8.812;2023-04-25T14:42:35;6.60;;;4.07;;
33836;SDS011;20140;49.356;8.812;2023-04-25T14:45:01;5.00;;;3.57;;